sensor_id;sensor_type;location;lat;lon;timestamp;P1;durP1;ratioP1;P2;durP2;ratioP2
79005;SDS011;69202;45.498;-73.582;2023-04-15T00:01:57;4.65;;;1.65;;
79005;SDS011;69202;45.498;-73.582;2023-04-15T00:04:24;8.68;;;1.73;;
79005;SDS011;69202;45.498;-73.582;2023-04-15T00:06:50;7.15;;;1.60;;
79005;SDS011;69202;45.498;-73.582;2023-04-15T00:09:17;6.55;;;1.70;;
79005;SDS011;69202;45.498;-73.582;2023-04-15T00:11:44;4.53;;;1.73;;
79005;SDS011;69202;45.498;-73.582;2023-04-15T00:14:11;8.98;;;2.05;;
79005;SDS011;69202;45.498;-73.582;2023-04-15T00:16:37;7.60;;;2.00;;
79005;SDS011;69202;45.498;-73.582;2023-04-15T00:19:03;5.25;;;1.63;;
79005;SDS011;69202;45.498;-73.582;2023-04-15T00:21:29;7.15;;;1.80;;
79005;SDS011;69202;45.498;-73.582;2023-04-15T00:23:55;7.35;;;1.98;;
79005;SDS011;69202;45.498;-73.582;2023-04-15T00:26:21;11.00;;;2.13;;
79005;SDS011;69202;45.498;-73.582;2023-04-15T00:28:47;12.95;;;2.58;;
79005;SDS011;69202;45.498;-73.582;2023-04-15T00:31:13;3.33;;;1.80;;
79005;SDS011;69202;45.498;-73.582;2023-04-15T00:33:39;6.03;;;2.00;;
79005;SDS011;69202;45.498;-73.582;2023-04-15T00:36:05;6.43;;;2.10;;
79005;SDS011;69202;45.498;-73.582;2023-04-15T00:38:32;11.20;;;2.83;;
79005;SDS011;69202;45.498;-73.582;2023-04-15T00:40:58;7.57;;;3.00;;
79005;SDS011;69202;45.498;-73.582;2023-04-15T00:43:24;6.72;;;2.58;;
79005;SDS011;69202;45.498;-73.582;2023-04-15T00:45:50;6.85;;;1.70;;
79005;SDS011;69202;45.498;-73.582;2023-04-15T00:48:19;5.70;;;1.73;;
79005;SDS011;69202;45.498;-73.582;2023-04-15T00:50:45;7.43;;;2.08;;
79005;SDS011;69202;45.498;-73.582;2023-04-15T00:53:11;6.75;;;2.50;;
79005;SDS011;69202;45.498;-73.582;2023-04-15T00:55:37;10.18;;;1.90;;
79005;SDS011;69202;45.498;-73.582;2023-04-15T00:58:03;8.88;;;2.30;;
79005;SDS011;69202;45.498;-73.582;2023-04-15T01:00:29;5.60;;;2.30;;
79005;SDS011;69202;45.498;-73.582;2023-04-15T01:02:55;10.70;;;2.08;;
79005;SDS011;69202;45.498;-73.582;2023-04-15T01:05:21;4.30;;;1.77;;
79005;SDS011;69202;45.498;-73.582;2023-04-15T01:07:47;5.55;;;1.58;;
79005;SDS011;69202;45.498;-73.582;2023-04-15T01:10:13;6.25;;;1.90;;
79005;SDS011;69202;45.498;-73.582;2023-04-15T01:12:39;8.88;;;1.90;;
79005;SDS011;69202;45.498;-73.582;2023-04-15T01:15:06;6.00;;;1.52;;
79005;SDS011;69202;45.498;-73.582;2023-04-15T01:17:35;4.45;;;1.83;;
79005;SDS011;69202;45.498;-73.582;2023-04-15T01:20:01;6.40;;;2.05;;
79005;SDS011;69202;45.498;-73.582;2023-04-15T01:22:27;3.42;;;1.80;;
79005;SDS011;69202;45.498;-73.582;2023-04-15T01:25:00;7.80;;;1.45;;
79005;SDS011;69202;45.498;-73.582;2023-04-15T01:27:30;5.05;;;1.60;;
79005;SDS011;69202;45.498;-73.582;2023-04-15T01:29:57;7.13;;;1.90;;
79005;SDS011;69202;45.498;-73.582;2023-04-15T01:32:23;8.85;;;2.00;;
79005;SDS011;69202;45.498;-73.582;2023-04-15T01:34:50;6.28;;;1.75;;
79005;SDS011;69202;45.498;-73.582;2023-04-15T01:37:16;7.00;;;2.03;;
79005;SDS011;69202;45.498;-73.582;2023-04-15T01:39:42;3.78;;;1.63;;
79005;SDS011;69202;45.498;-73.582;2023-04-15T01:42:08;4.88;;;1.52;;
79005;SDS011;69202;45.498;-73.582;2023-04-15T01:44:35;7.00;;;1.77;;
79005;SDS011;69202;45.498;-73.582;2023-04-15T01:47:01;8.25;;;1.90;;
79005;SDS011;69202;45.498;-73.582;2023-04-15T01:49:27;11.07;;;2.08;;
79005;SDS011;69202;45.498;-73.582;2023-04-15T01:51:53;8.18;;;1.80;;
79005;SDS011;69202;45.498;-73.582;2023-04-15T01:54:19;12.98;;;2.20;;
79005;SDS011;69202;45.498;-73.582;2023-04-15T01:56:45;10.45;;;2.10;;
79005;SDS011;69202;45.498;-73.582;2023-04-15T01:59:11;4.82;;;1.70;;
79005;SDS011;69202;45.498;-73.582;2023-04-15T02:01:37;6.55;;;1.77;;
79005;SDS011;69202;45.498;-73.582;2023-04-15T02:04:03;5.13;;;2.15;;
79005;SDS011;69202;45.498;-73.582;2023-04-15T02:06:29;5.97;;;2.15;;
79005;SDS011;69202;45.498;-73.582;2023-04-15T02:08:55;5.80;;;1.90;;
79005;SDS011;69202;45.498;-73.582;2023-04-15T02:11:23;4.40;;;1.50;;
79005;SDS011;69202;45.498;-73.582;2023-04-15T02:13:49;4.15;;;1.83;;
79005;SDS011;69202;45.498;-73.582;2023-04-15T02:16:15;6.53;;;2.55;;
79005;SDS011;69202;45.498;-73.582;2023-04-15T02:18:45;4.97;;;1.98;;
79005;SDS011;69202;45.498;-73.582;2023-04-15T02:21:11;8.30;;;2.33;;
79005;SDS011;69202;45.498;-73.582;2023-04-15T02:23:37;7.78;;;2.28;;
79005;SDS011;69202;45.498;-73.582;2023-04-15T02:26:03;6.95;;;2.03;;
79005;SDS011;69202;45.498;-73.582;2023-04-15T02:28:29;7.15;;;2.20;;
79005;SDS011;69202;45.498;-73.582;2023-04-15T02:30:55;7.88;;;1.70;;
79005;SDS011;69202;45.498;-73.582;2023-04-15T02:33:23;4.80;;;1.65;;
79005;SDS011;69202;45.498;-73.582;2023-04-15T02:35:49;5.30;;;1.75;;
79005;SDS011;69202;45.498;-73.582;2023-04-15T02:38:15;9.73;;;2.10;;
79005;SDS011;69202;45.498;-73.582;2023-04-15T02:40:42;6.55;;;1.70;;
79005;SDS011;69202;45.498;-73.582;2023-04-15T02:43:08;9.07;;;1.80;;
79005;SDS011;69202;45.498;-73.582;2023-04-15T02:45:34;4.65;;;1.55;;
79005;SDS011;69202;45.498;-73.582;2023-04-15T02:48:00;4.18;;;1.73;;
79005;SDS011;69202;45.498;-73.582;2023-04-15T02:50:33;4.57;;;1.90;;
79005;SDS011;69202;45.498;-73.582;2023-04-15T02:52:59;6.78;;;1.70;;
79005;SDS011;69202;45.498;-73.582;2023-04-15T02:55:26;4.25;;;1.60;;
79005;SDS011;69202;45.498;-73.582;2023-04-15T02:57:53;10.82;;;1.85;;
79005;SDS011;69202;45.498;-73.582;2023-04-15T03:00:19;5.03;;;1.88;;
79005;SDS011;69202;45.498;-73.582;2023-04-15T03:02:45;3.92;;;1.40;;
79005;SDS011;69202;45.498;-73.582;2023-04-15T03:05:12;6.53;;;1.70;;
79005;SDS011;69202;45.498;-73.582;2023-04-15T03:07:39;5.75;;;1.85;;
79005;SDS011;69202;45.498;-73.582;2023-04-15T03:10:05;4.28;;;1.30;;
79005;SDS011;69202;45.498;-73.582;2023-04-15T03:12:32;10.15;;;2.17;;
79005;SDS011;69202;45.498;-73.582;2023-04-15T03:14:58;4.13;;;1.67;;
79005;SDS011;69202;45.498;-73.582;2023-04-15T03:17:26;4.65;;;1.92;;
79005;SDS011;69202;45.498;-73.582;2023-04-15T03:19:52;7.75;;;1.90;;
79005;SDS011;69202;45.498;-73.582;2023-04-15T03:22:17;4.57;;;1.40;;
79005;SDS011;69202;45.498;-73.582;2023-04-15T03:24:43;3.80;;;1.73;;
79005;SDS011;69202;45.498;-73.582;2023-04-15T03:27:09;3.78;;;1.58;;
79005;SDS011;69202;45.498;-73.582;2023-04-15T03:29:35;1.83;;;1.30;;
79005;SDS011;69202;45.498;-73.582;2023-04-15T03:32:01;8.57;;;1.58;;
79005;SDS011;69202;45.498;-73.582;2023-04-15T03:34:27;3.70;;;1.30;;
79005;SDS011;69202;45.498;-73.582;2023-04-15T03:36:53;6.18;;;2.03;;
79005;SDS011;69202;45.498;-73.582;2023-04-15T03:39:20;5.50;;;2.10;;
79005;SDS011;69202;45.498;-73.582;2023-04-15T03:41:46;4.03;;;1.25;;
79005;SDS011;69202;45.498;-73.582;2023-04-15T03:44:12;3.90;;;1.70;;
79005;SDS011;69202;45.498;-73.582;2023-04-15T03:46:38;8.57;;;1.70;;
79005;SDS011;69202;45.498;-73.582;2023-04-15T03:49:05;5.30;;;1.80;;
79005;SDS011;69202;45.498;-73.582;2023-04-15T03:51:31;4.50;;;1.45;;
79005;SDS011;69202;45.498;-73.582;2023-04-15T03:53:57;3.42;;;1.73;;
79005;SDS011;69202;45.498;-73.582;2023-04-15T03:56:23;11.27;;;1.85;;
79005;SDS011;69202;45.498;-73.582;2023-04-15T03:58:49;7.53;;;1.80;;
79005;SDS011;69202;45.498;-73.582;2023-04-15T04:01:15;8.30;;;1.90;;
79005;SDS011;69202;45.498;-73.582;2023-04-15T04:03:41;5.53;;;2.20;;
79005;SDS011;69202;45.498;-73.582;2023-04-15T04:06:07;2.85;;;1.70;;
79005;SDS011;69202;45.498;-73.582;2023-04-15T04:08:33;8.02;;;2.05;;
79005;SDS011;69202;45.498;-73.582;2023-04-15T04:10:59;7.32;;;1.80;;
79005;SDS011;69202;45.498;-73.582;2023-04-15T04:13:25;4.40;;;1.67;;
79005;SDS011;69202;45.498;-73.582;2023-04-15T04:15:51;8.70;;;2.08;;
79005;SDS011;69202;45.498;-73.582;2023-04-15T04:18:17;5.75;;;2.20;;
79005;SDS011;69202;45.498;-73.582;2023-04-15T04:20:43;6.93;;;1.90;;
79005;SDS011;69202;45.498;-73.582;2023-04-15T04:23:09;8.43;;;2.30;;
79005;SDS011;69202;45.498;-73.582;2023-04-15T04:25:35;6.70;;;1.70;;
79005;SDS011;69202;45.498;-73.582;2023-04-15T04:28:01;5.80;;;2.03;;
79005;SDS011;69202;45.498;-73.582;2023-04-15T04:30:27;4.13;;;1.80;;
79005;SDS011;69202;45.498;-73.582;2023-04-15T04:32:52;4.85;;;1.77;;
79005;SDS011;69202;45.498;-73.582;2023-04-15T04:35:18;3.92;;;2.25;;
79005;SDS011;69202;45.498;-73.582;2023-04-15T04:37:45;5.18;;;2.42;;
79005;SDS011;69202;45.498;-73.582;2023-04-15T04:40:11;3.22;;;1.98;;
79005;SDS011;69202;45.498;-73.582;2023-04-15T04:42:38;4.47;;;2.20;;
79005;SDS011;69202;45.498;-73.582;2023-04-15T04:45:04;8.70;;;2.17;;
79005;SDS011;69202;45.498;-73.582;2023-04-15T04:47:31;4.97;;;2.30;;
79005;SDS011;69202;45.498;-73.582;2023-04-15T04:49:57;5.28;;;2.00;;
79005;SDS011;69202;45.498;-73.582;2023-04-15T04:52:23;7.65;;;2.35;;
79005;SDS011;69202;45.498;-73.582;2023-04-15T04:54:49;7.28;;;2.22;;
79005;SDS011;69202;45.498;-73.582;2023-04-15T04:57:15;5.82;;;1.90;;
79005;SDS011;69202;45.498;-73.582;2023-04-15T04:59:41;4.00;;;1.92;;
79005;SDS011;69202;45.498;-73.582;2023-04-15T05:02:06;3.97;;;2.00;;
79005;SDS011;69202;45.498;-73.582;2023-04-15T05:04:33;7.60;;;2.50;;
79005;SDS011;69202;45.498;-73.582;2023-04-15T05:06:59;6.05;;;2.40;;
79005;SDS011;69202;45.498;-73.582;2023-04-15T05:09:25;7.07;;;2.70;;
79005;SDS011;69202;45.498;-73.582;2023-04-15T05:11:51;8.75;;;2.38;;
79005;SDS011;69202;45.498;-73.582;2023-04-15T05:14:17;5.45;;;2.60;;
79005;SDS011;69202;45.498;-73.582;2023-04-15T05:16:43;7.63;;;2.92;;
79005;SDS011;69202;45.498;-73.582;2023-04-15T05:19:09;12.38;;;3.08;;
79005;SDS011;69202;45.498;-73.582;2023-04-15T05:21:35;12.15;;;3.80;;
79005;SDS011;69202;45.498;-73.582;2023-04-15T05:24:01;9.55;;;3.22;;
79005;SDS011;69202;45.498;-73.582;2023-04-15T05:26:28;6.47;;;3.00;;
79005;SDS011;69202;45.498;-73.582;2023-04-15T05:28:54;8.63;;;3.13;;
79005;SDS011;69202;45.498;-73.582;2023-04-15T05:31:19;9.27;;;2.95;;
79005;SDS011;69202;45.498;-73.582;2023-04-15T05:33:46;5.95;;;3.10;;
79005;SDS011;69202;45.498;-73.582;2023-04-15T05:36:11;9.23;;;2.58;;
79005;SDS011;69202;45.498;-73.582;2023-04-15T05:38:37;7.90;;;2.55;;
79005;SDS011;69202;45.498;-73.582;2023-04-15T05:41:03;7.40;;;2.38;;
79005;SDS011;69202;45.498;-73.582;2023-04-15T05:43:30;5.43;;;2.70;;
79005;SDS011;69202;45.498;-73.582;2023-04-15T05:45:56;8.68;;;2.90;;
79005;SDS011;69202;45.498;-73.582;2023-04-15T05:48:21;10.45;;;2.50;;
79005;SDS011;69202;45.498;-73.582;2023-04-15T05:50:47;8.98;;;2.72;;
79005;SDS011;69202;45.498;-73.582;2023-04-15T05:53:14;7.63;;;2.22;;
79005;SDS011;69202;45.498;-73.582;2023-04-15T05:55:40;8.65;;;2.75;;
79005;SDS011;69202;45.498;-73.582;2023-04-15T05:58:05;6.45;;;3.05;;
79005;SDS011;69202;45.498;-73.582;2023-04-15T06:00:31;8.32;;;2.72;;
79005;SDS011;69202;45.498;-73.582;2023-04-15T06:02:57;8.85;;;3.13;;
79005;SDS011;69202;45.498;-73.582;2023-04-15T06:05:24;7.75;;;3.10;;
79005;SDS011;69202;45.498;-73.582;2023-04-15T06:07:50;6.78;;;2.50;;
79005;SDS011;69202;45.498;-73.582;2023-04-15T06:10:16;11.18;;;2.70;;
79005;SDS011;69202;45.498;-73.582;2023-04-15T06:12:42;7.45;;;2.58;;
79005;SDS011;69202;45.498;-73.582;2023-04-15T06:15:08;9.65;;;3.38;;
79005;SDS011;69202;45.498;-73.582;2023-04-15T06:17:35;7.40;;;2.70;;
79005;SDS011;69202;45.498;-73.582;2023-04-15T06:20:01;8.98;;;2.85;;
79005;SDS011;69202;45.498;-73.582;2023-04-15T06:22:28;11.38;;;2.50;;
79005;SDS011;69202;45.498;-73.582;2023-04-15T06:24:54;4.00;;;2.33;;
79005;SDS011;69202;45.498;-73.582;2023-04-15T06:27:20;8.18;;;2.60;;
79005;SDS011;69202;45.498;-73.582;2023-04-15T06:29:47;6.47;;;2.60;;
79005;SDS011;69202;45.498;-73.582;2023-04-15T06:32:13;7.18;;;2.40;;
79005;SDS011;69202;45.498;-73.582;2023-04-15T06:34:39;5.40;;;2.70;;
79005;SDS011;69202;45.498;-73.582;2023-04-15T06:37:05;9.23;;;2.72;;
79005;SDS011;69202;45.498;-73.582;2023-04-15T06:39:31;7.28;;;2.90;;
79005;SDS011;69202;45.498;-73.582;2023-04-15T06:41:57;12.23;;;2.60;;
79005;SDS011;69202;45.498;-73.582;2023-04-15T06:44:23;6.78;;;2.38;;
79005;SDS011;69202;45.498;-73.582;2023-04-15T06:46:49;7.40;;;2.70;;
79005;SDS011;69202;45.498;-73.582;2023-04-15T06:49:15;7.28;;;2.50;;
79005;SDS011;69202;45.498;-73.582;2023-04-15T06:51:41;11.43;;;3.45;;
79005;SDS011;69202;45.498;-73.582;2023-04-15T06:54:07;8.38;;;3.00;;
79005;SDS011;69202;45.498;-73.582;2023-04-15T06:56:33;9.18;;;3.42;;
79005;SDS011;69202;45.498;-73.582;2023-04-15T06:58:59;6.95;;;2.60;;
79005;SDS011;69202;45.498;-73.582;2023-04-15T07:01:25;8.05;;;3.33;;
79005;SDS011;69202;45.498;-73.582;2023-04-15T07:03:52;6.95;;;2.75;;
79005;SDS011;69202;45.498;-73.582;2023-04-15T07:06:18;9.80;;;3.17;;
79005;SDS011;69202;45.498;-73.582;2023-04-15T07:08:44;7.97;;;3.35;;
79005;SDS011;69202;45.498;-73.582;2023-04-15T07:11:10;7.65;;;3.35;;
79005;SDS011;69202;45.498;-73.582;2023-04-15T07:13:36;6.07;;;3.35;;
79005;SDS011;69202;45.498;-73.582;2023-04-15T07:16:02;8.70;;;3.33;;
79005;SDS011;69202;45.498;-73.582;2023-04-15T07:18:28;7.32;;;3.38;;
79005;SDS011;69202;45.498;-73.582;2023-04-15T07:20:54;5.95;;;3.22;;
79005;SDS011;69202;45.498;-73.582;2023-04-15T07:23:20;5.57;;;2.90;;
79005;SDS011;69202;45.498;-73.582;2023-04-15T07:25:46;12.82;;;3.55;;
79005;SDS011;69202;45.498;-73.582;2023-04-15T07:28:12;11.52;;;3.13;;
79005;SDS011;69202;45.498;-73.582;2023-04-15T07:30:38;8.68;;;3.00;;
79005;SDS011;69202;45.498;-73.582;2023-04-15T07:33:04;5.60;;;2.95;;
79005;SDS011;69202;45.498;-73.582;2023-04-15T07:35:30;8.68;;;3.00;;
79005;SDS011;69202;45.498;-73.582;2023-04-15T07:37:56;8.07;;;3.15;;
79005;SDS011;69202;45.498;-73.582;2023-04-15T07:40:22;12.15;;;3.20;;
79005;SDS011;69202;45.498;-73.582;2023-04-15T07:42:48;8.90;;;3.20;;
79005;SDS011;69202;45.498;-73.582;2023-04-15T07:45:14;9.50;;;2.80;;
79005;SDS011;69202;45.498;-73.582;2023-04-15T07:47:41;7.50;;;2.95;;
79005;SDS011;69202;45.498;-73.582;2023-04-15T07:50:08;6.57;;;2.55;;
79005;SDS011;69202;45.498;-73.582;2023-04-15T07:52:35;5.78;;;2.38;;
79005;SDS011;69202;45.498;-73.582;2023-04-15T07:55:06;9.85;;;2.38;;
79005;SDS011;69202;45.498;-73.582;2023-04-15T07:57:34;10.00;;;2.65;;
79005;SDS011;69202;45.498;-73.582;2023-04-15T08:00:01;6.93;;;2.67;;
79005;SDS011;69202;45.498;-73.582;2023-04-15T08:02:30;8.60;;;2.75;;
79005;SDS011;69202;45.498;-73.582;2023-04-15T08:04:56;9.52;;;2.78;;
79005;SDS011;69202;45.498;-73.582;2023-04-15T08:07:22;5.55;;;2.97;;
79005;SDS011;69202;45.498;-73.582;2023-04-15T08:09:49;6.47;;;2.50;;
79005;SDS011;69202;45.498;-73.582;2023-04-15T08:12:15;13.52;;;3.55;;
79005;SDS011;69202;45.498;-73.582;2023-04-15T08:14:41;8.48;;;2.58;;
79005;SDS011;69202;45.498;-73.582;2023-04-15T08:17:07;7.60;;;2.60;;
79005;SDS011;69202;45.498;-73.582;2023-04-15T08:19:33;10.77;;;2.85;;
79005;SDS011;69202;45.498;-73.582;2023-04-15T08:21:59;7.65;;;2.70;;
79005;SDS011;69202;45.498;-73.582;2023-04-15T08:24:25;8.32;;;2.92;;
79005;SDS011;69202;45.498;-73.582;2023-04-15T08:26:52;6.35;;;2.65;;
79005;SDS011;69202;45.498;-73.582;2023-04-15T08:29:18;6.15;;;2.45;;
79005;SDS011;69202;45.498;-73.582;2023-04-15T08:31:43;12.13;;;3.00;;
79005;SDS011;69202;45.498;-73.582;2023-04-15T08:34:10;8.63;;;2.78;;
79005;SDS011;69202;45.498;-73.582;2023-04-15T08:36:36;9.13;;;3.05;;
79005;SDS011;69202;45.498;-73.582;2023-04-15T08:39:02;7.55;;;2.63;;
79005;SDS011;69202;45.498;-73.582;2023-04-15T08:41:31;6.85;;;2.67;;
79005;SDS011;69202;45.498;-73.582;2023-04-15T08:44:04;7.68;;;2.33;;
79005;SDS011;69202;45.498;-73.582;2023-04-15T08:46:31;10.15;;;2.45;;
79005;SDS011;69202;45.498;-73.582;2023-04-15T08:49:02;7.65;;;2.50;;
79005;SDS011;69202;45.498;-73.582;2023-04-15T08:51:29;6.75;;;2.30;;
79005;SDS011;69202;45.498;-73.582;2023-04-15T08:53:56;4.97;;;2.50;;
79005;SDS011;69202;45.498;-73.582;2023-04-15T08:56:23;7.35;;;2.70;;
79005;SDS011;69202;45.498;-73.582;2023-04-15T08:58:51;4.78;;;2.38;;
79005;SDS011;69202;45.498;-73.582;2023-04-15T09:01:17;7.13;;;2.60;;
79005;SDS011;69202;45.498;-73.582;2023-04-15T09:03:44;5.70;;;2.42;;
79005;SDS011;69202;45.498;-73.582;2023-04-15T09:06:12;5.05;;;2.92;;
79005;SDS011;69202;45.498;-73.582;2023-04-15T09:08:40;3.42;;;2.20;;
79005;SDS011;69202;45.498;-73.582;2023-04-15T09:11:06;7.55;;;2.70;;
79005;SDS011;69202;45.498;-73.582;2023-04-15T09:13:32;5.55;;;2.72;;
79005;SDS011;69202;45.498;-73.582;2023-04-15T09:16:01;6.47;;;2.35;;
79005;SDS011;69202;45.498;-73.582;2023-04-15T09:18:30;7.85;;;2.60;;
79005;SDS011;69202;45.498;-73.582;2023-04-15T09:21:07;9.35;;;2.58;;
79005;SDS011;69202;45.498;-73.582;2023-04-15T09:23:33;4.90;;;2.35;;
79005;SDS011;69202;45.498;-73.582;2023-04-15T09:26:00;5.60;;;2.55;;
79005;SDS011;69202;45.498;-73.582;2023-04-15T09:28:27;4.95;;;2.75;;
79005;SDS011;69202;45.498;-73.582;2023-04-15T09:30:56;10.82;;;3.03;;
79005;SDS011;69202;45.498;-73.582;2023-04-15T09:33:22;7.55;;;2.63;;
79005;SDS011;69202;45.498;-73.582;2023-04-15T09:38:26;4.35;;;2.72;;
79005;SDS011;69202;45.498;-73.582;2023-04-15T09:40:52;3.63;;;2.45;;
79005;SDS011;69202;45.498;-73.582;2023-04-15T09:43:19;5.20;;;2.20;;
79005;SDS011;69202;45.498;-73.582;2023-04-15T09:48:18;5.97;;;2.20;;
79005;SDS011;69202;45.498;-73.582;2023-04-15T09:50:46;5.18;;;2.55;;
79005;SDS011;69202;45.498;-73.582;2023-04-15T09:53:17;6.10;;;2.38;;
79005;SDS011;69202;45.498;-73.582;2023-04-15T09:55:51;7.25;;;2.60;;
79005;SDS011;69202;45.498;-73.582;2023-04-15T09:58:23;5.63;;;2.45;;
79005;SDS011;69202;45.498;-73.582;2023-04-15T10:00:53;9.95;;;2.55;;
79005;SDS011;69202;45.498;-73.582;2023-04-15T10:03:21;6.68;;;2.85;;
79005;SDS011;69202;45.498;-73.582;2023-04-15T10:05:52;7.60;;;2.58;;
79005;SDS011;69202;45.498;-73.582;2023-04-15T10:08:21;7.53;;;2.60;;
79005;SDS011;69202;45.498;-73.582;2023-04-15T10:10:52;6.93;;;2.38;;
79005;SDS011;69202;45.498;-73.582;2023-04-15T10:13:25;6.43;;;2.88;;
79005;SDS011;69202;45.498;-73.582;2023-04-15T10:18:41;7.50;;;2.78;;
79005;SDS011;69202;45.498;-73.582;2023-04-15T10:21:09;10.07;;;2.60;;
79005;SDS011;69202;45.498;-73.582;2023-04-15T10:23:38;6.45;;;2.97;;
79005;SDS011;69202;45.498;-73.582;2023-04-15T10:26:04;13.82;;;3.22;;
79005;SDS011;69202;45.498;-73.582;2023-04-15T10:28:31;6.20;;;2.80;;
79005;SDS011;69202;45.498;-73.582;2023-04-15T10:30:56;9.13;;;3.65;;
79005;SDS011;69202;45.498;-73.582;2023-04-15T10:33:24;11.13;;;4.00;;
79005;SDS011;69202;45.498;-73.582;2023-04-15T10:35:51;8.63;;;3.47;;
79005;SDS011;69202;45.498;-73.582;2023-04-15T10:38:38;12.50;;;3.80;;
79005;SDS011;69202;45.498;-73.582;2023-04-15T10:41:18;11.02;;;3.83;;
79005;SDS011;69202;45.498;-73.582;2023-04-15T10:43:50;9.02;;;4.15;;
79005;SDS011;69202;45.498;-73.582;2023-04-15T10:46:34;10.73;;;3.75;;
79005;SDS011;69202;45.498;-73.582;2023-04-15T10:51:41;11.68;;;4.32;;
79005;SDS011;69202;45.498;-73.582;2023-04-15T10:54:16;8.95;;;3.97;;
79005;SDS011;69202;45.498;-73.582;2023-04-15T10:56:51;10.75;;;3.65;;
79005;SDS011;69202;45.498;-73.582;2023-04-15T10:59:30;13.13;;;4.55;;
79005;SDS011;69202;45.498;-73.582;2023-04-15T11:01:59;8.60;;;3.95;;
79005;SDS011;69202;45.498;-73.582;2023-04-15T11:07:34;8.95;;;3.85;;
79005;SDS011;69202;45.498;-73.582;2023-04-15T11:12:43;9.68;;;4.03;;
79005;SDS011;69202;45.498;-73.582;2023-04-15T11:18:08;7.25;;;3.22;;
79005;SDS011;69202;45.498;-73.582;2023-04-15T11:20:53;8.38;;;3.60;;
79005;SDS011;69202;45.498;-73.582;2023-04-15T11:26:05;7.18;;;3.75;;
79005;SDS011;69202;45.498;-73.582;2023-04-15T11:28:36;7.72;;;3.47;;
79005;SDS011;69202;45.498;-73.582;2023-04-15T11:31:05;8.90;;;3.70;;
79005;SDS011;69202;45.498;-73.582;2023-04-15T11:33:36;10.88;;;3.70;;
79005;SDS011;69202;45.498;-73.582;2023-04-15T11:36:03;7.30;;;3.50;;
79005;SDS011;69202;45.498;-73.582;2023-04-15T11:38:29;9.15;;;3.60;;
79005;SDS011;69202;45.498;-73.582;2023-04-15T11:40:55;8.02;;;3.03;;
79005;SDS011;69202;45.498;-73.582;2023-04-15T11:43:22;6.43;;;3.47;;
79005;SDS011;69202;45.498;-73.582;2023-04-15T11:48:20;7.47;;;3.60;;
79005;SDS011;69202;45.498;-73.582;2023-04-15T11:50:54;8.63;;;3.50;;
79005;SDS011;69202;45.498;-73.582;2023-04-15T11:53:23;10.23;;;3.60;;
79005;SDS011;69202;45.498;-73.582;2023-04-15T11:56:00;11.10;;;3.53;;
79005;SDS011;69202;45.498;-73.582;2023-04-15T11:58:26;5.78;;;3.13;;
79005;SDS011;69202;45.498;-73.582;2023-04-15T12:06:05;5.72;;;3.35;;
79005;SDS011;69202;45.498;-73.582;2023-04-15T12:08:56;8.63;;;3.38;;
79005;SDS011;69202;45.498;-73.582;2023-04-15T12:11:34;7.07;;;3.20;;
79005;SDS011;69202;45.498;-73.582;2023-04-15T12:14:03;5.90;;;2.97;;
79005;SDS011;69202;45.498;-73.582;2023-04-15T12:16:30;8.27;;;2.90;;
79005;SDS011;69202;45.498;-73.582;2023-04-15T12:18:58;5.63;;;3.13;;
79005;SDS011;69202;45.498;-73.582;2023-04-15T12:21:26;6.90;;;3.08;;
79005;SDS011;69202;45.498;-73.582;2023-04-15T12:24:00;8.18;;;3.50;;
79005;SDS011;69202;45.498;-73.582;2023-04-15T12:26:29;6.90;;;2.90;;
79005;SDS011;69202;45.498;-73.582;2023-04-15T12:29:16;12.93;;;3.30;;
79005;SDS011;69202;45.498;-73.582;2023-04-15T12:32:03;10.77;;;3.53;;
79005;SDS011;69202;45.498;-73.582;2023-04-15T12:34:32;6.05;;;3.00;;
79005;SDS011;69202;45.498;-73.582;2023-04-15T12:37:01;6.38;;;3.10;;
79005;SDS011;69202;45.498;-73.582;2023-04-15T12:39:29;6.88;;;3.38;;
79005;SDS011;69202;45.498;-73.582;2023-04-15T12:41:57;6.85;;;2.72;;
79005;SDS011;69202;45.498;-73.582;2023-04-15T12:44:24;6.15;;;3.20;;
79005;SDS011;69202;45.498;-73.582;2023-04-15T12:46:51;9.23;;;3.10;;
79005;SDS011;69202;45.498;-73.582;2023-04-15T12:49:21;7.72;;;3.10;;
79005;SDS011;69202;45.498;-73.582;2023-04-15T12:51:49;6.75;;;3.15;;
79005;SDS011;69202;45.498;-73.582;2023-04-15T12:54:17;5.53;;;2.42;;
79005;SDS011;69202;45.498;-73.582;2023-04-15T12:56:44;7.68;;;2.80;;
79005;SDS011;69202;45.498;-73.582;2023-04-15T12:59:11;7.90;;;3.00;;
79005;SDS011;69202;45.498;-73.582;2023-04-15T13:01:41;9.40;;;3.25;;
79005;SDS011;69202;45.498;-73.582;2023-04-15T13:04:07;9.27;;;3.15;;
79005;SDS011;69202;45.498;-73.582;2023-04-15T13:06:33;7.15;;;3.10;;
79005;SDS011;69202;45.498;-73.582;2023-04-15T13:08:59;10.13;;;3.38;;
79005;SDS011;69202;45.498;-73.582;2023-04-15T13:11:26;8.02;;;2.85;;
79005;SDS011;69202;45.498;-73.582;2023-04-15T13:13:55;8.43;;;3.10;;
79005;SDS011;69202;45.498;-73.582;2023-04-15T13:16:22;7.70;;;2.88;;
79005;SDS011;69202;45.498;-73.582;2023-04-15T13:18:48;5.70;;;3.05;;
79005;SDS011;69202;45.498;-73.582;2023-04-15T13:21:15;10.23;;;3.10;;
79005;SDS011;69202;45.498;-73.582;2023-04-15T13:23:41;8.32;;;3.17;;
79005;SDS011;69202;45.498;-73.582;2023-04-15T13:26:07;7.53;;;2.90;;
79005;SDS011;69202;45.498;-73.582;2023-04-15T13:28:33;8.45;;;2.95;;
79005;SDS011;69202;45.498;-73.582;2023-04-15T13:30:59;10.40;;;2.83;;
79005;SDS011;69202;45.498;-73.582;2023-04-15T13:33:25;8.40;;;3.00;;
79005;SDS011;69202;45.498;-73.582;2023-04-15T13:35:52;10.18;;;3.30;;
79005;SDS011;69202;45.498;-73.582;2023-04-15T13:38:18;4.97;;;2.70;;
79005;SDS011;69202;45.498;-73.582;2023-04-15T13:40:44;5.25;;;2.80;;
79005;SDS011;69202;45.498;-73.582;2023-04-15T13:43:10;7.82;;;2.88;;
79005;SDS011;69202;45.498;-73.582;2023-04-15T13:45:36;7.05;;;3.40;;
79005;SDS011;69202;45.498;-73.582;2023-04-15T13:48:03;7.95;;;2.90;;
79005;SDS011;69202;45.498;-73.582;2023-04-15T13:50:29;8.95;;;2.85;;
79005;SDS011;69202;45.498;-73.582;2023-04-15T13:52:55;6.38;;;2.88;;
79005;SDS011;69202;45.498;-73.582;2023-04-15T13:55:21;7.97;;;2.70;;
79005;SDS011;69202;45.498;-73.582;2023-04-15T13:57:47;7.93;;;2.80;;
79005;SDS011;69202;45.498;-73.582;2023-04-15T14:00:14;6.07;;;2.28;;
79005;SDS011;69202;45.498;-73.582;2023-04-15T14:02:40;7.78;;;2.72;;
79005;SDS011;69202;45.498;-73.582;2023-04-15T14:05:07;5.95;;;2.70;;
79005;SDS011;69202;45.498;-73.582;2023-04-15T14:07:33;5.88;;;2.55;;
79005;SDS011;69202;45.498;-73.582;2023-04-15T14:09:59;8.30;;;2.63;;
79005;SDS011;69202;45.498;-73.582;2023-04-15T14:12:25;6.72;;;3.03;;
79005;SDS011;69202;45.498;-73.582;2023-04-15T14:14:51;5.78;;;2.60;;
79005;SDS011;69202;45.498;-73.582;2023-04-15T14:17:17;6.38;;;1.90;;
79005;SDS011;69202;45.498;-73.582;2023-04-15T14:19:43;9.27;;;2.17;;
79005;SDS011;69202;45.498;-73.582;2023-04-15T14:22:09;6.45;;;2.10;;
79005;SDS011;69202;45.498;-73.582;2023-04-15T14:24:35;6.25;;;2.33;;
79005;SDS011;69202;45.498;-73.582;2023-04-15T14:27:01;3.97;;;2.25;;
79005;SDS011;69202;45.498;-73.582;2023-04-15T14:29:27;5.90;;;2.10;;
79005;SDS011;69202;45.498;-73.582;2023-04-15T14:31:53;4.97;;;1.90;;
79005;SDS011;69202;45.498;-73.582;2023-04-15T14:34:21;11.07;;;2.45;;
79005;SDS011;69202;45.498;-73.582;2023-04-15T14:36:49;8.10;;;2.53;;
79005;SDS011;69202;45.498;-73.582;2023-04-15T14:39:19;7.78;;;2.40;;
79005;SDS011;69202;45.498;-73.582;2023-04-15T14:41:45;7.07;;;2.70;;
79005;SDS011;69202;45.498;-73.582;2023-04-15T14:44:11;8.48;;;2.40;;
79005;SDS011;69202;45.498;-73.582;2023-04-15T14:46:37;10.30;;;2.40;;
79005;SDS011;69202;45.498;-73.582;2023-04-15T14:49:05;9.32;;;2.25;;
79005;SDS011;69202;45.498;-73.582;2023-04-15T14:51:31;10.85;;;2.63;;